Time;durP1;ratioP1;P1;durP2;ratioP2;P2;SDS_P1;SDS_P2;PMS_P1;PMS_P2;Temp;Humidity;BMP_temperature;BMP_pressure;BME280_temperature;BME280_humidity;BME280_pressure;Samples;Min_cycle;Max_cycle;Signal;HPM_P1;HPM_P2
2023/06/08 00:02:25;;;;;;;17.95;5.57;;;;;;;;;;5054190;28;20084;-77
2023/06/08 00:04:54;;;;;;;15.10;6.03;;;;;;;;;;5045860;28;20071;-77
2023/06/08 00:07:21;;;;;;;18.15;6.40;;;;;;;;;;5052340;28;20060;-77
2023/06/08 00:09:48;;;;;;;13.30;5.80;;;;;;;;;;5051971;28;20115;-78
2023/06/08 00:12:14;;;;;;;16.52;6.25;;;;;;;;;;5046351;28;20056;-77
2023/06/08 00:14:40;;;;;;;15.88;6.00;;;;;;;;;;5050336;28;20045;-77
2023/06/08 00:17:08;;;;;;;13.98;6.65;;;;;;;;;;5051946;28;20120;-77
2023/06/08 00:19:38;;;;;;;17.10;6.63;;;;;;;;;;5052014;28;20098;-78
2023/06/08 00:22:05;;;;;;;15.02;6.22;;;;;;;;;;5051715;28;20055;-77
2023/06/08 00:24:31;;;;;;;19.25;6.43;;;;;;;;;;5034727;28;20393;-78
2023/06/08 00:26:57;;;;;;;13.30;6.13;;;;;;;;;;5051584;28;20049;-77
2023/06/08 00:29:23;;;;;;;16.38;6.57;;;;;;;;;;5051630;28;20583;-78
2023/06/08 00:31:50;;;;;;;14.30;5.43;;;;;;;;;;5034367;28;20076;-77
2023/06/08 00:34:16;;;;;;;19.52;7.10;;;;;;;;;;5051220;28;20132;-78
2023/06/08 00:36:42;;;;;;;16.88;6.95;;;;;;;;;;5051083;28;20555;-78
2023/06/08 00:39:08;;;;;;;15.15;6.53;;;;;;;;;;5052229;28;20037;-78
2023/06/08 00:41:35;;;;;;;14.32;6.47;;;;;;;;;;5034278;28;20044;-78
2023/06/08 00:44:01;;;;;;;12.90;6.47;;;;;;;;;;5034377;28;20091;-78
2023/06/08 00:46:30;;;;;;;13.88;6.70;;;;;;;;;;5052267;28;20124;-78
2023/06/08 00:49:00;;;;;;;18.00;6.82;;;;;;;;;;5034379;28;20203;-77
2023/06/08 00:51:32;;;;;;;17.10;7.15;;;;;;;;;;5033186;28;20049;-77
2023/06/08 00:53:58;;;;;;;18.13;7.22;;;;;;;;;;5033838;28;20052;-77
2023/06/08 00:56:31;;;;;;;14.43;6.30;;;;;;;;;;5051862;28;20045;-78
2023/06/08 00:59:00;;;;;;;15.25;6.97;;;;;;;;;;5051722;28;20045;-77
2023/06/08 01:01:30;;;;;;;14.80;7.20;;;;;;;;;;5033517;28;20052;-77
2023/06/08 01:04:05;;;;;;;17.40;7.63;;;;;;;;;;5051585;28;20041;-77
2023/06/08 01:06:32;;;;;;;16.20;7.13;;;;;;;;;;5033629;28;20053;-77
2023/06/08 01:09:02;;;;;;;15.00;6.90;;;;;;;;;;5048447;28;20348;-77
2023/06/08 01:11:33;;;;;;;16.63;8.05;;;;;;;;;;5051673;28;20045;-77
2023/06/08 01:14:14;;;;;;;16.15;7.10;;;;;;;;;;5033181;28;20049;-77
2023/06/08 01:16:44;;;;;;;17.73;8.00;;;;;;;;;;5051663;28;20049;-77
2023/06/08 01:19:12;;;;;;;17.73;7.43;;;;;;;;;;5051511;28;20052;-77
2023/06/08 01:21:58;;;;;;;17.50;7.43;;;;;;;;;;5033626;28;20367;-77
2023/06/08 01:24:25;;;;;;;21.13;7.70;;;;;;;;;;5010646;28;20053;-77
2023/06/08 01:26:53;;;;;;;17.25;7.25;;;;;;;;;;5051581;28;20044;-77
2023/06/08 01:29:25;;;;;;;17.25;7.10;;;;;;;;;;5051740;28;20055;-77
2023/06/08 01:31:51;;;;;;;14.15;6.97;;;;;;;;;;5033314;28;20041;-77
2023/06/08 01:34:18;;;;;;;14.05;6.93;;;;;;;;;;5033201;28;20397;-76
2023/06/08 01:36:44;;;;;;;18.65;7.05;;;;;;;;;;5051312;28;20053;-76
2023/06/08 01:39:12;;;;;;;13.52;6.90;;;;;;;;;;5066740;28;20076;-76
2023/06/08 01:41:39;;;;;;;15.15;7.00;;;;;;;;;;5051337;28;20048;-76
2023/06/08 01:44:07;;;;;;;16.17;7.28;;;;;;;;;;5046103;28;20041;-76
2023/06/08 01:46:33;;;;;;;15.30;6.97;;;;;;;;;;5021370;28;20055;-76
2023/06/08 01:49:02;;;;;;;13.95;6.13;;;;;;;;;;5033474;28;20075;-76
2023/06/08 01:51:29;;;;;;;20.00;7.00;;;;;;;;;;5033761;28;20037;-76
2023/06/08 01:54:06;;;;;;;16.20;6.93;;;;;;;;;;5051116;28;20486;-75
2023/06/08 01:56:33;;;;;;;14.32;6.53;;;;;;;;;;5051201;28;20131;-76
2023/06/08 01:58:59;;;;;;;14.68;6.95;;;;;;;;;;5051732;28;20069;-76
2023/06/08 02:01:25;;;;;;;18.92;7.22;;;;;;;;;;5033066;28;20103;-75
2023/06/08 02:03:51;;;;;;;17.90;6.63;;;;;;;;;;5035670;28;20045;-76
2023/06/08 02:06:18;;;;;;;13.15;6.45;;;;;;;;;;5054654;28;20057;-77
2023/06/08 02:08:44;;;;;;;14.52;6.35;;;;;;;;;;5049545;28;20139;-77
2023/06/08 02:11:10;;;;;;;15.88;6.97;;;;;;;;;;5036803;28;20036;-76
2023/06/08 02:13:40;;;;;;;11.02;6.50;;;;;;;;;;5053945;28;20489;-77
2023/06/08 02:16:06;;;;;;;17.30;6.25;;;;;;;;;;5058852;28;20148;-76
2023/06/08 02:18:35;;;;;;;15.23;6.85;;;;;;;;;;5044182;28;20041;-76
2023/06/08 02:21:04;;;;;;;19.33;7.63;;;;;;;;;;5069584;28;20045;-77
2023/06/08 02:23:30;;;;;;;14.82;7.63;;;;;;;;;;5054557;28;20116;-76
2023/06/08 02:25:56;;;;;;;19.33;8.27;;;;;;;;;;5059942;28;20576;-76
2023/06/08 02:28:23;;;;;;;15.05;8.15;;;;;;;;;;5036122;28;20389;-76
2023/06/08 02:30:49;;;;;;;19.35;8.25;;;;;;;;;;5054251;28;20041;-76
2023/06/08 02:33:15;;;;;;;15.18;7.88;;;;;;;;;;5054309;28;20044;-76
2023/06/08 02:35:41;;;;;;;18.58;8.30;;;;;;;;;;5054248;28;20081;-76
2023/06/08 02:38:07;;;;;;;20.85;8.23;;;;;;;;;;5036363;28;20053;-76
2023/06/08 02:40:33;;;;;;;18.00;7.47;;;;;;;;;;5049730;28;20409;-76
2023/06/08 02:43:00;;;;;;;15.45;6.72;;;;;;;;;;5033666;28;20128;-76
2023/06/08 02:45:26;;;;;;;16.02;7.65;;;;;;;;;;5050697;28;20045;-76
2023/06/08 02:47:52;;;;;;;19.20;7.82;;;;;;;;;;5052764;28;20040;-76
2023/06/08 02:50:19;;;;;;;18.23;7.57;;;;;;;;;;5035762;28;20055;-76
2023/06/08 02:52:45;;;;;;;18.77;7.53;;;;;;;;;;5052619;28;20056;-78
2023/06/08 02:55:12;;;;;;;16.05;6.53;;;;;;;;;;5053700;28;20045;-76
2023/06/08 02:57:38;;;;;;;15.63;6.85;;;;;;;;;;5053357;28;20450;-77
2023/06/08 03:00:07;;;;;;;18.85;7.20;;;;;;;;;;5069103;28;20058;-77
2023/06/08 03:02:33;;;;;;;17.52;8.07;;;;;;;;;;5052951;28;20041;-77
2023/06/08 03:05:02;;;;;;;16.48;7.97;;;;;;;;;;5047795;28;20124;-77
2023/06/08 03:07:28;;;;;;;17.58;8.30;;;;;;;;;;5053093;28;20053;-77
2023/06/08 03:09:54;;;;;;;16.23;8.55;;;;;;;;;;5053087;28;20052;-76
2023/06/08 03:12:21;;;;;;;18.63;8.38;;;;;;;;;;5069168;28;20049;-77
2023/06/08 03:14:48;;;;;;;21.35;8.98;;;;;;;;;;5052127;28;20116;-76
2023/06/08 03:17:17;;;;;;;16.45;8.45;;;;;;;;;;5053865;28;20512;-77
2023/06/08 03:19:44;;;;;;;21.75;8.32;;;;;;;;;;5053201;28;20068;-77
2023/06/08 03:22:10;;;;;;;17.05;8.75;;;;;;;;;;5053637;28;20040;-76
2023/06/08 03:24:36;;;;;;;17.77;8.30;;;;;;;;;;5052461;28;20405;-77
2023/06/08 03:27:03;;;;;;;16.95;8.13;;;;;;;;;;5052265;28;20080;-77
2023/06/08 03:29:30;;;;;;;19.25;8.50;;;;;;;;;;5050319;28;20525;-77
2023/06/08 03:31:56;;;;;;;16.80;7.90;;;;;;;;;;5052302;28;20040;-76
2023/06/08 03:34:26;;;;;;;17.50;8.15;;;;;;;;;;5052909;28;20044;-78
2023/06/08 03:36:52;;;;;;;13.30;7.32;;;;;;;;;;5053098;28;20045;-77
2023/06/08 03:39:18;;;;;;;15.38;7.28;;;;;;;;;;5051091;28;20044;-77
2023/06/08 03:41:45;;;;;;;13.90;6.78;;;;;;;;;;5053022;28;20049;-76
2023/06/08 03:44:11;;;;;;;15.27;6.70;;;;;;;;;;5035167;28;20067;-76
2023/06/08 03:46:37;;;;;;;18.95;6.35;;;;;;;;;;5052740;28;20517;-76
2023/06/08 03:49:03;;;;;;;14.30;6.38;;;;;;;;;;5052925;28;20441;-77
2023/06/08 03:51:29;;;;;;;17.15;6.10;;;;;;;;;;5018430;28;20102;-77
2023/06/08 03:53:55;;;;;;;14.48;6.25;;;;;;;;;;5052799;28;20095;-76
2023/06/08 03:56:21;;;;;;;12.57;5.90;;;;;;;;;;5052274;28;20489;-76
2023/06/08 03:58:48;;;;;;;16.20;6.20;;;;;;;;;;5052169;28;20134;-76
2023/06/08 04:01:15;;;;;;;14.23;5.82;;;;;;;;;;5051385;28;20120;-77
2023/06/08 04:03:41;;;;;;;18.52;6.20;;;;;;;;;;5034042;28;20142;-76
2023/06/08 04:06:08;;;;;;;14.90;6.05;;;;;;;;;;5019841;28;20498;-76
2023/06/08 04:08:35;;;;;;;14.98;6.13;;;;;;;;;;5052368;28;20565;-77
2023/06/08 04:11:01;;;;;;;18.15;7.25;;;;;;;;;;5052661;28;20049;-76
2023/06/08 04:13:27;;;;;;;15.52;6.60;;;;;;;;;;5052387;28;20041;-77
2023/06/08 04:15:54;;;;;;;16.58;6.35;;;;;;;;;;5066337;28;20261;-77
2023/06/08 04:18:21;;;;;;;16.75;6.70;;;;;;;;;;5052618;28;20063;-77
2023/06/08 04:20:48;;;;;;;16.33;6.40;;;;;;;;;;5035532;28;20042;-77
2023/06/08 04:23:15;;;;;;;19.05;6.88;;;;;;;;;;5034567;28;20037;-77
2023/06/08 04:25:41;;;;;;;20.58;6.45;;;;;;;;;;5033153;28;20041;-77
2023/06/08 04:28:07;;;;;;;19.33;6.22;;;;;;;;;;5052278;28;20048;-78
2023/06/08 04:30:33;;;;;;;17.23;5.85;;;;;;;;;;5034190;28;20102;-77
2023/06/08 04:33:00;;;;;;;18.08;5.95;;;;;;;;;;5034583;28;20436;-77
2023/06/08 04:35:27;;;;;;;17.75;5.65;;;;;;;;;;5034060;28;20045;-77
2023/06/08 04:37:53;;;;;;;15.85;5.82;;;;;;;;;;5035205;28;20448;-77
2023/06/08 04:40:19;;;;;;;18.58;6.20;;;;;;;;;;5052162;28;20409;-77
2023/06/08 04:42:46;;;;;;;16.13;5.93;;;;;;;;;;5050854;28;20490;-77
2023/06/08 04:45:12;;;;;;;13.98;5.65;;;;;;;;;;5051970;28;20120;-77
2023/06/08 04:47:39;;;;;;;18.88;6.00;;;;;;;;;;5050974;28;20052;-78
2023/06/08 04:50:09;;;;;;;18.92;6.40;;;;;;;;;;5051433;28;20041;-77
2023/06/08 04:52:40;;;;;;;14.60;5.82;;;;;;;;;;5051387;28;20102;-77
2023/06/08 04:55:16;;;;;;;21.55;6.30;;;;;;;;;;5045264;28;20037;-77
2023/06/08 04:57:42;;;;;;;;;;;;;;;;;;5045411;28;20048;-77
2023/06/08 05:00:09;;;;;;;;;;;;;;;;;;5034407;28;20273;-77
2023/06/08 05:02:36;;;;;;;16.60;6.43;;;;;;;;;;5053455;28;19932;-77
2023/06/08 05:05:03;;;;;;;17.20;6.40;;;;;;;;;;5018733;28;20037;-77
2023/06/08 05:07:29;;;;;;;17.17;6.13;;;;;;;;;;5051938;28;20065;-76
2023/06/08 05:09:56;;;;;;;14.63;6.47;;;;;;;;;;5033208;28;20037;-79
2023/06/08 05:12:23;;;;;;;13.10;6.25;;;;;;;;;;5051443;28;20044;-79
2023/06/08 05:14:49;;;;;;;14.07;6.38;;;;;;;;;;5051208;28;20379;-79
2023/06/08 05:17:15;;;;;;;17.27;6.38;;;;;;;;;;5032421;28;20041;-79
2023/06/08 05:19:41;;;;;;;15.00;5.63;;;;;;;;;;5050591;28;20084;-79
2023/06/08 05:22:07;;;;;;;19.60;6.72;;;;;;;;;;5051846;28;20075;-79
2023/06/08 05:24:33;;;;;;;17.30;6.40;;;;;;;;;;5033989;28;20092;-79
2023/06/08 05:26:59;;;;;;;16.88;6.40;;;;;;;;;;5034138;28;20099;-79
2023/06/08 05:29:25;;;;;;;17.75;6.55;;;;;;;;;;5033832;28;20393;-78
2023/06/08 05:31:51;;;;;;;19.70;6.00;;;;;;;;;;5033800;28;20118;-79
2023/06/08 05:34:17;;;;;;;13.60;5.68;;;;;;;;;;5050678;28;20103;-80
2023/06/08 05:36:43;;;;;;;15.98;5.97;;;;;;;;;;5017337;28;20405;-79
2023/06/08 05:39:09;;;;;;;15.68;6.30;;;;;;;;;;5054836;28;20041;-79
2023/06/08 05:41:35;;;;;;;13.10;5.57;;;;;;;;;;5055179;28;20106;-79
2023/06/08 05:44:01;;;;;;;14.73;5.53;;;;;;;;;;5055145;28;20409;-79
2023/06/08 05:46:27;;;;;;;14.80;5.82;;;;;;;;;;5055441;28;20056;-79
2023/06/08 05:48:53;;;;;;;13.15;5.35;;;;;;;;;;5055188;28;20040;-79
2023/06/08 05:51:20;;;;;;;16.15;5.75;;;;;;;;;;5036717;28;20139;-78
2023/06/08 05:53:46;;;;;;;19.58;6.05;;;;;;;;;;5037206;28;20045;-80
2023/06/08 05:56:13;;;;;;;16.60;5.80;;;;;;;;;;5037223;28;20127;-79
2023/06/08 05:58:39;;;;;;;13.48;5.28;;;;;;;;;;5037639;28;20362;-80
2023/06/08 06:01:05;;;;;;;15.18;5.63;;;;;;;;;;5037176;28;20063;-79
2023/06/08 06:03:31;;;;;;;17.52;5.93;;;;;;;;;;5055035;28;20383;-79
2023/06/08 06:05:58;;;;;;;15.48;5.28;;;;;;;;;;5055052;28;20339;-79
2023/06/08 06:08:25;;;;;;;13.70;5.60;;;;;;;;;;5054562;28;20502;-79
2023/06/08 06:10:51;;;;;;;15.45;5.28;;;;;;;;;;5053584;28;20045;-79
2023/06/08 06:13:18;;;;;;;15.63;5.75;;;;;;;;;;5035763;28;20452;-79
2023/06/08 06:15:44;;;;;;;13.63;5.25;;;;;;;;;;5054445;28;20106;-79
2023/06/08 06:18:10;;;;;;;18.70;5.78;;;;;;;;;;5036851;28;20048;-79
2023/06/08 06:20:36;;;;;;;14.57;5.93;;;;;;;;;;5061242;28;20049;-79
2023/06/08 06:23:02;;;;;;;14.70;5.32;;;;;;;;;;5032227;28;20473;-79
2023/06/08 06:25:28;;;;;;;15.85;5.80;;;;;;;;;;5036119;28;20084;-80
2023/06/08 06:27:54;;;;;;;21.45;5.93;;;;;;;;;;5054504;28;20131;-80
2023/06/08 06:30:20;;;;;;;18.70;5.60;;;;;;;;;;5054518;28;20497;-79
2023/06/08 06:32:46;;;;;;;17.92;5.72;;;;;;;;;;5054317;28;20401;-79
2023/06/08 06:35:12;;;;;;;13.13;5.15;;;;;;;;;;5036496;28;20396;-79
2023/06/08 06:37:38;;;;;;;14.15;5.55;;;;;;;;;;5054789;28;20449;-80
2023/06/08 06:40:08;;;;;;;17.05;5.80;;;;;;;;;;5021105;28;20080;-79
2023/06/08 06:42:37;;;;;;;14.73;5.60;;;;;;;;;;5022377;28;20049;-79
2023/06/08 06:45:04;;;;;;;13.27;5.45;;;;;;;;;;5054586;28;20052;-80
2023/06/08 06:47:30;;;;;;;14.20;5.38;;;;;;;;;;5054593;28;20055;-79
2023/06/08 06:49:56;;;;;;;13.48;5.10;;;;;;;;;;5036002;28;20037;-79
2023/06/08 06:52:22;;;;;;;13.50;5.03;;;;;;;;;;5054815;28;20138;-79
2023/06/08 06:54:48;;;;;;;15.07;4.75;;;;;;;;;;5053430;28;20044;-80
2023/06/08 06:57:14;;;;;;;13.80;4.65;;;;;;;;;;5054462;28;20094;-80
2023/06/08 06:59:41;;;;;;;15.65;5.03;;;;;;;;;;5035996;28;20497;-79
2023/06/08 07:02:07;;;;;;;12.27;4.85;;;;;;;;;;5053637;28;20498;-80
2023/06/08 07:04:33;;;;;;;14.55;4.90;;;;;;;;;;5051994;28;20055;-79
2023/06/08 07:06:59;;;;;;;19.25;4.90;;;;;;;;;;5035925;28;20053;-80
2023/06/08 07:09:25;;;;;;;12.35;4.75;;;;;;;;;;5041152;28;20054;-80
2023/06/08 07:11:52;;;;;;;12.35;4.57;;;;;;;;;;5034415;28;20045;-80
2023/06/08 07:14:18;;;;;;;14.77;5.40;;;;;;;;;;5053265;28;20041;-80
2023/06/08 07:16:44;;;;;;;15.02;4.72;;;;;;;;;;5017779;28;20053;-80
2023/06/08 07:19:10;;;;;;;13.60;4.72;;;;;;;;;;5035434;28;20398;-80
2023/06/08 07:21:38;;;;;;;14.13;4.65;;;;;;;;;;5035293;28;20049;-80
2023/06/08 07:24:08;;;;;;;17.27;5.00;;;;;;;;;;5035097;28;20047;-81
2023/06/08 07:26:34;;;;;;;14.95;4.68;;;;;;;;;;5052600;28;20171;-79
2023/06/08 07:29:01;;;;;;;17.35;4.78;;;;;;;;;;5053262;28;20052;-79
2023/06/08 07:31:27;;;;;;;12.32;4.50;;;;;;;;;;5035219;28;20041;-80
2023/06/08 07:33:54;;;;;;;18.05;4.90;;;;;;;;;;5053045;28;20048;-80
2023/06/08 07:36:22;;;;;;;13.25;4.88;;;;;;;;;;5034276;28;20497;-80
2023/06/08 07:38:51;;;;;;;10.65;4.70;;;;;;;;;;5034367;28;20048;-80
2023/06/08 07:41:20;;;;;;;15.55;5.35;;;;;;;;;;5051395;28;20041;-80
2023/06/08 07:43:48;;;;;;;13.93;4.88;;;;;;;;;;5034175;28;20044;-80
2023/06/08 07:46:14;;;;;;;15.82;4.70;;;;;;;;;;5036411;28;20512;-82
2023/06/08 07:48:40;;;;;;;13.63;5.07;;;;;;;;;;5015185;28;20049;-79
2023/06/08 07:51:06;;;;;;;13.80;5.40;;;;;;;;;;5032984;28;20052;-79
2023/06/08 07:53:38;;;;;;;15.85;4.82;;;;;;;;;;5050349;28;20120;-78
2023/06/08 07:56:05;;;;;;;16.88;5.45;;;;;;;;;;5034179;28;20108;-79
2023/06/08 07:58:31;;;;;;;15.68;5.05;;;;;;;;;;5052815;28;20041;-80
2023/06/08 08:00:57;;;;;;;15.27;4.90;;;;;;;;;;5051280;28;20451;-80
2023/06/08 08:03:23;;;;;;;13.55;4.80;;;;;;;;;;5052539;28;20079;-80
2023/06/08 08:05:49;;;;;;;11.50;4.90;;;;;;;;;;5018322;28;20417;-80
2023/06/08 08:08:16;;;;;;;10.18;4.43;;;;;;;;;;5047966;28;20399;-80
2023/06/08 08:10:42;;;;;;;12.93;4.57;;;;;;;;;;5029199;28;20064;-80
2023/06/08 08:13:08;;;;;;;14.15;4.97;;;;;;;;;;5032307;28;20435;-80
2023/06/08 08:15:34;;;;;;;15.60;4.88;;;;;;;;;;5050432;28;20049;-80
2023/06/08 08:18:00;;;;;;;13.75;5.03;;;;;;;;;;5029401;28;20060;-80
2023/06/08 08:20:26;;;;;;;18.35;6.28;;;;;;;;;;5032634;28;20075;-80
2023/06/08 08:22:53;;;;;;;20.15;6.82;;;;;;;;;;5032068;28;20049;-81
2023/06/08 08:25:19;;;;;;;13.38;4.93;;;;;;;;;;5032328;28;20081;-81
2023/06/08 08:27:46;;;;;;;15.60;4.72;;;;;;;;;;5032569;28;20045;-81
2023/06/08 08:30:12;;;;;;;13.68;4.65;;;;;;;;;;5047351;28;20445;-80
2023/06/08 08:32:38;;;;;;;11.30;4.68;;;;;;;;;;5031726;28;20041;-78
2023/06/08 08:35:04;;;;;;;12.63;4.88;;;;;;;;;;5033910;28;20501;-77
2023/06/08 08:37:31;;;;;;;13.25;4.80;;;;;;;;;;5027666;28;20501;-80
2023/06/08 08:39:57;;;;;;;12.63;4.75;;;;;;;;;;5059769;28;20045;-80
2023/06/08 08:42:25;;;;;;;14.35;4.53;;;;;;;;;;5047260;28;20052;-79
2023/06/08 08:44:55;;;;;;;8.77;4.15;;;;;;;;;;5048935;28;20429;-80
2023/06/08 08:47:26;;;;;;;12.98;4.60;;;;;;;;;;5031514;28;20462;-79
2023/06/08 08:50:03;;;;;;;11.40;3.83;;;;;;;;;;5047211;28;20110;-79
2023/06/08 08:52:33;;;;;;;11.93;5.15;;;;;;;;;;5047795;28;20041;-80
2023/06/08 08:55:00;;;;;;;10.50;4.38;;;;;;;;;;5048744;28;20122;-80
2023/06/08 08:57:30;;;;;;;11.52;4.32;;;;;;;;;;5048463;28;20110;-79
2023/06/08 08:59:56;;;;;;;11.70;4.22;;;;;;;;;;5030822;28;20041;-78
2023/06/08 09:02:23;;;;;;;11.45;4.45;;;;;;;;;;5051303;28;20044;-80
2023/06/08 09:04:50;;;;;;;14.75;4.22;;;;;;;;;;5033635;28;20490;-77
2023/06/08 09:07:20;;;;;;;10.18;4.30;;;;;;;;;;5051887;28;20053;-79
2023/06/08 09:10:05;;;;;;;13.85;4.53;;;;;;;;;;5036153;28;20053;-79
2023/06/08 09:12:41;;;;;;;13.03;4.33;;;;;;;;;;5032410;28;20073;-78
2023/06/08 09:15:08;;;;;;;10.38;4.50;;;;;;;;;;5051030;28;20091;-78
2023/06/08 09:17:37;;;;;;;10.35;4.28;;;;;;;;;;5035281;28;20103;-83
2023/06/08 09:20:10;;;;;;;16.05;4.95;;;;;;;;;;5043382;28;20468;-82
2023/06/08 09:22:36;;;;;;;10.98;4.40;;;;;;;;;;5052331;28;20086;-82
2023/06/08 09:25:06;;;;;;;14.40;4.43;;;;;;;;;;5059582;28;20053;-82
2023/06/08 09:27:32;;;;;;;16.13;4.80;;;;;;;;;;5022826;28;20128;-82
2023/06/08 09:30:02;;;;;;;12.88;4.18;;;;;;;;;;5017664;28;20087;-82
2023/06/08 09:32:32;;;;;;;11.80;4.68;;;;;;;;;;5063101;28;20549;-83
2023/06/08 09:35:02;;;;;;;13.98;4.43;;;;;;;;;;5050860;28;20079;-82
2023/06/08 09:37:32;;;;;;;10.07;3.80;;;;;;;;;;5052153;28;20048;-83
2023/06/08 09:39:59;;;;;;;11.23;4.10;;;;;;;;;;5068068;28;20037;-82
2023/06/08 09:42:40;;;;;;;10.88;4.10;;;;;;;;;;5052722;28;20115;-82
2023/06/08 09:45:08;;;;;;;13.00;4.25;;;;;;;;;;5051837;28;20444;-73
2023/06/08 09:47:34;;;;;;;10.60;4.05;;;;;;;;;;5035191;28;20140;-76
2023/06/08 09:50:00;;;;;;;13.77;4.18;;;;;;;;;;5054727;28;20049;-76
2023/06/08 09:52:28;;;;;;;11.15;4.10;;;;;;;;;;5055200;28;20080;-76
2023/06/08 09:54:54;;;;;;;12.35;3.70;;;;;;;;;;5054686;28;20057;-76
2023/06/08 09:57:21;;;;;;;11.82;4.80;;;;;;;;;;5036486;28;20084;-76
2023/06/08 10:00:17;;;;;;;14.65;4.10;;;;;;;;;;5055038;28;20041;-76
2023/06/08 10:03:02;;;;;;;10.65;3.80;;;;;;;;;;5054916;28;20052;-76
2023/06/08 10:05:30;;;;;;;13.05;4.28;;;;;;;;;;5052688;28;20045;-76
2023/06/08 10:07:58;;;;;;;12.25;4.60;;;;;;;;;;5031311;28;20176;-76
2023/06/08 10:10:45;;;;;;;11.68;4.00;;;;;;;;;;5029099;28;20054;-76
2023/06/08 10:13:11;;;;;;;8.88;3.88;;;;;;;;;;5013678;28;20042;-76
2023/06/08 10:15:37;;;;;;;12.10;4.07;;;;;;;;;;5013929;28;20046;-76
2023/06/08 10:18:03;;;;;;;12.15;4.30;;;;;;;;;;5014116;28;20454;-76
2023/06/08 10:20:30;;;;;;;13.80;4.13;;;;;;;;;;5011845;28;20130;-76
2023/06/08 10:22:58;;;;;;;12.32;4.28;;;;;;;;;;5013691;28;20073;-76
2023/06/08 10:25:27;;;;;;;10.45;4.03;;;;;;;;;;5013197;28;20042;-75
2023/06/08 10:27:53;;;;;;;11.40;3.92;;;;;;;;;;5028777;28;20629;-76
2023/06/08 10:30:27;;;;;;;11.18;3.40;;;;;;;;;;5028442;28;20046;-77
2023/06/08 10:32:55;;;;;;;11.90;4.20;;;;;;;;;;5013089;28;20038;-76
2023/06/08 10:35:21;;;;;;;12.32;3.97;;;;;;;;;;5013590;28;20085;-76
2023/06/08 10:37:48;;;;;;;11.65;3.70;;;;;;;;;;5013438;28;20048;-75
2023/06/08 10:40:14;;;;;;;13.15;4.20;;;;;;;;;;5013511;28;20050;-76
2023/06/08 10:42:55;;;;;;;10.88;3.92;;;;;;;;;;5012523;28;20050;-75
2023/06/08 10:45:31;;;;;;;9.52;3.42;;;;;;;;;;5028535;28;20483;-76
2023/06/08 10:48:24;;;;;;;8.48;3.63;;;;;;;;;;5027988;28;20053;-76
2023/06/08 10:50:50;;;;;;;8.50;3.40;;;;;;;;;;5012172;28;20069;-76
2023/06/08 10:53:20;;;;;;;10.98;3.70;;;;;;;;;;5013365;28;20121;-76
2023/06/08 10:55:47;;;;;;;9.25;3.38;;;;;;;;;;5014089;28;20395;-76
2023/06/08 10:58:18;;;;;;;9.85;3.90;;;;;;;;;;5013324;28;20073;-76
2023/06/08 11:00:46;;;;;;;12.35;3.85;;;;;;;;;;5012254;28;20062;-76
2023/06/08 11:03:21;;;;;;;10.95;3.80;;;;;;;;;;5028447;28;20072;-76
2023/06/08 11:08:34;;;;;;;8.77;3.53;;;;;;;;;;5192144;27;20114;-76
2023/06/08 11:11:00;;;;;;;8.63;3.72;;;;;;;;;;5170696;27;20057;-75
2023/06/08 11:13:27;;;;;;;6.80;3.35;;;;;;;;;;5170453;27;20387;-75
2023/06/08 11:15:54;;;;;;;10.23;3.72;;;;;;;;;;5168881;27;20053;-77
2023/06/08 11:18:20;;;;;;;8.90;3.30;;;;;;;;;;5152967;27;20075;-76
2023/06/08 11:20:47;;;;;;;10.10;3.50;;;;;;;;;;5171461;27;20039;-76
2023/06/08 11:23:13;;;;;;;8.80;3.42;;;;;;;;;;5150749;27;20038;-76
2023/06/08 11:25:40;;;;;;;9.05;3.58;;;;;;;;;;5169745;27;20042;-76
2023/06/08 11:28:08;;;;;;;10.05;3.40;;;;;;;;;;5152449;27;20121;-76
2023/06/08 11:30:35;;;;;;;9.80;3.70;;;;;;;;;;5152667;27;20084;-76
2023/06/08 11:33:03;;;;;;;10.10;3.50;;;;;;;;;;5171931;27;20034;-76
2023/06/08 11:35:29;;;;;;;9.43;3.58;;;;;;;;;;5135407;27;20050;-76
2023/06/08 11:37:59;;;;;;;8.75;3.30;;;;;;;;;;5170832;27;20038;-76
2023/06/08 11:40:25;;;;;;;6.85;3.08;;;;;;;;;;5170414;27;20370;-77
2023/06/08 11:42:52;;;;;;;7.75;3.10;;;;;;;;;;5171574;27;20081;-77
2023/06/08 11:45:18;;;;;;;9.70;3.53;;;;;;;;;;5152864;27;20399;-77
2023/06/08 11:47:45;;;;;;;8.73;2.85;;;;;;;;;;5171213;27;20077;-77
2023/06/08 11:50:16;;;;;;;10.32;3.30;;;;;;;;;;5170935;27;20049;-76
2023/06/08 11:52:42;;;;;;;9.73;3.30;;;;;;;;;;5171455;27;20490;-76
2023/06/08 11:55:11;;;;;;;8.80;2.97;;;;;;;;;;5152133;27;20102;-76
2023/06/08 11:57:55;;;;;;;7.70;3.20;;;;;;;;;;5133159;27;20053;-76
2023/06/08 12:00:34;;;;;;;7.93;3.00;;;;;;;;;;5169027;27;20065;-75
2023/06/08 12:03:03;;;;;;;7.43;2.80;;;;;;;;;;5170515;27;20107;-77
2023/06/08 12:05:33;;;;;;;7.22;3.10;;;;;;;;;;5171123;27;20078;-77
2023/06/08 12:08:00;;;;;;;9.20;2.80;;;;;;;;;;5170815;27;20130;-77
2023/06/08 12:10:33;;;;;;;7.70;2.80;;;;;;;;;;5151601;27;20470;-78
2023/06/08 12:13:00;;;;;;;10.60;3.25;;;;;;;;;;5170903;27;20042;-78
2023/06/08 12:15:26;;;;;;;6.97;2.80;;;;;;;;;;5168148;27;20042;-75
2023/06/08 12:17:52;;;;;;;6.28;2.60;;;;;;;;;;5168262;27;20156;-76
2023/06/08 12:20:18;;;;;;;8.18;2.92;;;;;;;;;;5156620;27;20134;-75
2023/06/08 12:22:44;;;;;;;7.82;2.75;;;;;;;;;;5155152;27;20038;-75
2023/06/08 12:25:11;;;;;;;7.53;2.92;;;;;;;;;;5137509;27;20053;-75
2023/06/08 12:27:39;;;;;;;8.00;2.75;;;;;;;;;;5137846;27;20050;-75
2023/06/08 12:30:07;;;;;;;8.38;2.92;;;;;;;;;;5137882;27;20042;-76
2023/06/08 12:32:33;;;;;;;9.80;2.97;;;;;;;;;;5137718;27;20555;-76
2023/06/08 12:35:00;;;;;;;8.38;3.00;;;;;;;;;;5156084;27;20051;-76
2023/06/08 12:37:27;;;;;;;8.65;3.28;;;;;;;;;;5137962;27;20125;-76
2023/06/08 12:39:53;;;;;;;7.82;3.30;;;;;;;;;;5137088;27;20105;-76
2023/06/08 12:42:20;;;;;;;8.80;3.30;;;;;;;;;;5156135;27;20502;-75
2023/06/08 12:44:47;;;;;;;11.57;3.20;;;;;;;;;;5137143;27;20058;-76
2023/06/08 12:47:13;;;;;;;10.77;3.10;;;;;;;;;;5156532;27;20088;-76
2023/06/08 12:49:41;;;;;;;7.53;2.97;;;;;;;;;;5135461;27;20509;-77
2023/06/08 12:52:07;;;;;;;9.27;3.10;;;;;;;;;;5155547;27;20121;-77
2023/06/08 12:54:34;;;;;;;7.95;2.80;;;;;;;;;;5156027;27;20043;-77
2023/06/08 12:57:00;;;;;;;8.82;2.88;;;;;;;;;;5156488;27;20041;-77
2023/06/08 12:59:26;;;;;;;7.18;2.88;;;;;;;;;;5136817;27;20041;-77
2023/06/08 13:01:52;;;;;;;10.35;3.45;;;;;;;;;;5137808;27;20038;-77
2023/06/08 13:04:18;;;;;;;8.55;3.28;;;;;;;;;;5156309;27;20082;-76
2023/06/08 13:06:44;;;;;;;8.05;3.10;;;;;;;;;;5154658;27;20138;-76
2023/06/08 13:09:10;;;;;;;7.35;2.97;;;;;;;;;;5136934;27;20130;-76
2023/06/08 13:11:39;;;;;;;8.63;3.38;;;;;;;;;;5155695;27;20120;-76
2023/06/08 13:14:06;;;;;;;8.43;3.22;;;;;;;;;;5137012;27;20058;-76
2023/06/08 13:16:32;;;;;;;8.98;3.28;;;;;;;;;;5136997;27;20081;-77
2023/06/08 13:18:58;;;;;;;8.88;3.20;;;;;;;;;;5155826;27;20089;-76
2023/06/08 13:21:24;;;;;;;8.73;3.20;;;;;;;;;;5155147;27;20118;-77
2023/06/08 13:23:50;;;;;;;6.63;2.95;;;;;;;;;;5152846;27;20050;-76
2023/06/08 13:26:17;;;;;;;9.82;3.15;;;;;;;;;;5136590;27;20133;-77
2023/06/08 13:28:44;;;;;;;9.50;3.22;;;;;;;;;;5136829;27;20064;-76
2023/06/08 13:31:11;;;;;;;10.00;3.20;;;;;;;;;;5135660;27;20095;-76
2023/06/08 13:33:37;;;;;;;9.57;3.40;;;;;;;;;;5136890;27;20049;-76
2023/06/08 13:36:03;;;;;;;8.57;2.95;;;;;;;;;;5137042;27;20043;-76
2023/06/08 13:38:29;;;;;;;9.07;3.10;;;;;;;;;;5136665;27;20103;-77
2023/06/08 13:40:55;;;;;;;7.38;2.97;;;;;;;;;;5136681;27;20501;-76
2023/06/08 13:43:21;;;;;;;10.25;2.80;;;;;;;;;;5119505;27;20091;-76
2023/06/08 13:45:47;;;;;;;8.32;2.88;;;;;;;;;;5136743;27;20099;-76
2023/06/08 13:48:13;;;;;;;7.25;2.92;;;;;;;;;;5154813;27;20445;-77
2023/06/08 13:50:39;;;;;;;7.90;3.30;;;;;;;;;;5155149;27;20043;-77
2023/06/08 13:53:05;;;;;;;7.35;2.88;;;;;;;;;;5155507;27;20115;-76
2023/06/08 13:55:31;;;;;;;6.88;3.00;;;;;;;;;;5136043;27;20050;-76
2023/06/08 13:57:57;;;;;;;9.90;3.00;;;;;;;;;;5155022;27;20467;-75
2023/06/08 14:00:24;;;;;;;7.60;3.10;;;;;;;;;;5136097;27;20050;-76
2023/06/08 14:02:50;;;;;;;7.15;2.92;;;;;;;;;;5155133;27;20034;-76
2023/06/08 14:05:20;;;;;;;8.55;2.92;;;;;;;;;;5154784;27;20448;-77
2023/06/08 14:07:46;;;;;;;10.05;3.10;;;;;;;;;;5133856;27;20065;-77
2023/06/08 14:10:12;;;;;;;8.98;3.00;;;;;;;;;;5135240;27;20068;-77
2023/06/08 14:12:39;;;;;;;8.50;3.15;;;;;;;;;;5136100;27;20064;-76
2023/06/08 14:15:06;;;;;;;9.70;3.20;;;;;;;;;;5135890;27;20050;-76
2023/06/08 14:17:32;;;;;;;11.77;3.20;;;;;;;;;;5136366;27;20422;-76
2023/06/08 14:19:58;;;;;;;10.82;3.50;;;;;;;;;;5135348;27;20042;-76
2023/06/08 14:22:24;;;;;;;8.13;3.00;;;;;;;;;;5154466;27;20043;-76
2023/06/08 14:24:50;;;;;;;6.75;3.10;;;;;;;;;;5135514;27;20046;-76
2023/06/08 14:27:16;;;;;;;8.73;2.85;;;;;;;;;;5135156;27;20143;-76
2023/06/08 14:29:42;;;;;;;11.38;3.15;;;;;;;;;;5117819;27;20051;-77
2023/06/08 14:32:08;;;;;;;9.15;3.13;;;;;;;;;;5154704;27;20069;-76
2023/06/08 14:34:35;;;;;;;8.20;2.88;;;;;;;;;;5153698;27;20562;-76
2023/06/08 14:37:01;;;;;;;9.60;3.10;;;;;;;;;;5153804;27;20418;-76
2023/06/08 14:39:27;;;;;;;7.88;3.10;;;;;;;;;;5152753;27;20113;-78